Aviation Digital Data Service (ADDS)

Output produced by METARs form (2339 UTC 18 August 2019)
found at http://www.aviationweather.gov/metar/data/
 
Forecast for: PAKN (KING SALMON , AK, US)
Text: PAKN 182337Z 1900/1924 36011G20KT 2SM FU SCT200
Forecast period: 0000 to 1200 UTC 19 August 2019
Forecast type: FROM: standard forecast or significant change
Winds: from the N (360 degrees) at 13 MPH (11 knots; 5.7 m/s)
gusting to 23 MPH (20 knots; 10.3 m/s)
Visibility: 2.00 miles (3.22 km)
Ceiling: at least 12,000 feet AGL
Clouds: scattered clouds at 20000 feet AGL
Weather: FU  (smoke)
Text: FM191200 03007KT P6SM SCT200
Forecast period: 1200 UTC 19 August 2019 to 0000 UTC 20 August 2019
Forecast type: FROM: standard forecast or significant change
Winds: from the NNE (30 degrees) at 8 MPH (7 knots; 3.6 m/s)
Visibility: 6 or more miles 10+ km)
Ceiling: at least 12,000 feet AGL
Clouds: scattered clouds at 20000 feet AGL
Weather: no significant weather forecast for this period